createdAt,value
2019-05-26T06:55:07.709Z,76.30
2019-05-26T07:00:13.024Z,75.40
2019-05-26T07:05:18.527Z,74.80
2019-05-26T07:10:23.189Z,74.10
2019-05-26T07:15:27.588Z,74.30
2019-05-26T07:20:31.984Z,73.60
2019-05-26T07:25:36.850Z,73.20
2019-05-26T07:30:41.261Z,72.80
2019-05-26T07:35:45.567Z,72.30
2019-05-26T07:40:49.896Z,72.20
2019-05-26T07:45:54.371Z,71.20
2019-05-26T07:50:58.771Z,71.00
2019-05-26T07:56:03.211Z,70.80
2019-05-26T08:01:07.599Z,69.60
2019-05-26T08:06:11.988Z,69.60
2019-05-26T08:11:16.446Z,69.40
2019-05-26T08:16:20.855Z,68.90
2019-05-26T08:21:25.243Z,70.20
2019-05-26T08:26:29.559Z,70.20
2019-05-26T08:31:33.958Z,70.10
2019-05-26T08:36:38.426Z,67.10
2019-05-26T08:41:42.834Z,66.80
2019-05-26T08:46:47.218Z,65.20
2019-05-26T08:51:51.604Z,64.60
2019-05-26T08:56:56.093Z,63.40
2019-05-26T09:02:00.488Z,63.50
2019-05-26T09:07:04.946Z,61.90
2019-05-26T09:12:09.363Z,62.00
2019-05-26T09:17:13.790Z,62.10
2019-05-26T09:22:18.117Z,62.00
2019-05-26T09:27:22.500Z,61.30
2019-05-26T09:32:26.822Z,60.60
2019-05-26T09:37:31.211Z,60.40
2019-05-26T09:42:35.607Z,59.10
2019-05-26T09:47:39.986Z,59.60
2019-05-26T09:52:44.418Z,59.30
2019-05-26T09:57:48.807Z,59.20
2019-05-26T10:02:53.264Z,58.90
2019-05-26T14:13:06.530Z,45.80
2019-05-26T14:18:10.979Z,46.50
2019-05-26T14:23:15.376Z,46.60
2019-05-26T14:28:19.784Z,46.10
2019-05-26T14:33:24.372Z,45.00
2019-05-26T14:38:42.330Z,42.80
2019-05-26T14:43:35.072Z,43.00
2019-05-26T14:48:39.460Z,43.20
2019-05-26T14:53:43.841Z,43.40
2019-05-26T14:58:48.146Z,43.20
2019-05-26T15:03:52.532Z,44.10
2019-05-26T15:09:02.884Z,43.80
2019-05-26T15:14:07.339Z,42.00
2019-05-26T15:19:11.731Z,42.90
2019-05-26T15:24:16.036Z,43.90
2019-05-26T15:29:20.434Z,44.20
2019-05-26T15:34:24.833Z,44.80
2019-05-26T15:39:29.219Z,45.70
2019-05-26T15:44:33.709Z,47.00
2019-05-26T15:49:38.298Z,46.40
2019-05-26T15:54:42.608Z,47.50
2019-05-26T15:59:46.924Z,47.80
2019-05-26T16:04:51.307Z,48.10
2019-05-26T16:09:55.634Z,48.10
2019-05-26T16:15:00.052Z,48.20
2019-05-26T16:20:09.739Z,48.30
2019-05-26T16:25:15.039Z,48.60
2019-05-26T16:30:19.546Z,49.90
2019-05-26T16:35:23.911Z,50.00
2019-05-26T16:40:28.389Z,48.40
2019-05-26T16:45:32.781Z,46.00
2019-05-26T16:50:37.104Z,45.90
2019-05-26T16:55:41.424Z,47.50
2019-05-26T17:00:45.829Z,49.30
2019-05-26T17:05:50.184Z,50.80
2019-05-26T17:10:54.592Z,52.40
2019-05-26T17:15:59.057Z,53.10
2019-05-26T17:21:03.635Z,51.20
2019-05-26T17:26:08.218Z,50.40
2019-05-26T17:31:12.515Z,50.50
2019-05-26T17:36:16.833Z,50.90
2019-05-26T17:41:21.420Z,51.70
2019-05-26T17:46:25.821Z,52.20
2019-05-26T17:51:30.899Z,52.70
2019-05-26T17:56:35.481Z,53.80
2019-05-26T18:01:39.884Z,54.50
2019-05-26T18:06:44.304Z,54.70
2019-05-26T18:11:48.767Z,55.00
2019-05-26T18:16:53.083Z,55.30
2019-05-26T18:21:57.403Z,55.40
2019-05-26T18:27:01.866Z,56.00
2019-05-26T18:32:06.361Z,56.20
2019-05-26T18:37:10.867Z,56.80
2019-05-26T18:42:15.426Z,57.50
2019-05-26T18:47:19.788Z,57.90
2019-05-26T18:52:24.167Z,58.60
2019-05-26T18:57:28.480Z,58.70
2019-05-26T19:02:32.860Z,59.10
2019-05-26T19:07:37.324Z,59.40
2019-05-26T19:12:41.907Z,60.00
2019-05-26T19:17:46.373Z,60.10
2019-05-26T19:22:53.289Z,61.00
2019-05-26T19:27:57.018Z,61.10
2019-05-26T19:33:01.402Z,61.50
2019-05-26T19:38:05.711Z,61.80
2019-05-26T19:43:10.197Z,61.80
2019-05-26T19:48:14.583Z,61.80
2019-05-26T19:53:18.892Z,61.90
2019-05-26T19:58:23.357Z,62.10
2019-05-26T20:03:27.680Z,62.20
2019-05-26T20:08:32.130Z,62.40
2019-05-26T20:13:36.439Z,62.40
2019-05-26T20:18:41.084Z,62.90
2019-05-26T20:23:45.390Z,63.00
2019-05-26T21:24:08.680Z,66.50
2019-05-26T21:29:13.312Z,69.10
2019-05-26T21:34:17.778Z,71.80
2019-05-26T21:39:22.174Z,72.50
2019-05-26T21:44:26.491Z,73.50
2019-05-26T21:49:30.884Z,74.90
2019-05-26T21:54:35.557Z,80.40
2019-05-26T21:59:39.880Z,84.20
2019-05-26T22:04:44.290Z,86.70
2019-05-26T22:09:48.746Z,90.20
2019-05-26T22:14:53.142Z,91.30
2019-05-26T22:19:57.546Z,92.00
2019-05-26T22:25:01.854Z,92.20
2019-05-26T22:30:10.389Z,92.60
2019-05-26T22:35:14.816Z,93.00
2019-05-26T22:40:19.201Z,93.20
2019-05-26T22:45:23.592Z,93.50
2019-05-26T22:50:28.187Z,93.90
2019-05-26T22:55:32.583Z,94.30
2019-05-26T23:00:37.049Z,94.40
2019-05-26T23:05:41.452Z,94.60
2019-05-26T23:10:45.768Z,94.70
2019-05-26T23:15:50.372Z,95.00
2019-05-26T23:20:54.758Z,95.20
2019-05-26T23:25:59.347Z,95.30
2019-05-26T23:31:03.735Z,95.50
2019-05-26T23:36:08.198Z,95.60
2019-05-26T23:41:12.504Z,95.90
2019-05-26T23:46:16.907Z,95.90
2019-05-26T23:51:21.215Z,96.30
2019-05-26T23:56:25.685Z,96.40
